Time;durP1;ratioP1;P1;durP2;ratioP2;P2;SDS_P1;SDS_P2;PMS_P1;PMS_P2;Temp;Humidity;BMP_temperature;BMP_pressure;BME280_temperature;BME280_humidity;BME280_pressure;Samples;Min_cycle;Max_cycle;Signal;HPM_P1;HPM_P2
2022/06/10 00:00:34;;;;;;;7.63;2.40;;;14.30;99.90;;;;;;5103189;28;20184;-69
2022/06/10 00:02:59;;;;;;;6.55;2.40;;;14.40;99.90;;;;;;5103126;28;20066;-69
2022/06/10 00:05:27;;;;;;;10.50;2.53;;;14.30;99.90;;;;;;5103580;28;20048;-68
2022/06/10 00:07:54;;;;;;;8.85;2.60;;;14.30;99.90;;;;;;5103135;28;20047;-69
2022/06/10 00:10:24;;;;;;;4.43;1.70;;;14.30;99.90;;;;;;5103006;28;20108;-69
2022/06/10 00:12:50;;;;;;;4.90;1.63;;;14.00;99.90;;;;;;5101176;28;20408;-69
2022/06/10 00:15:17;;;;;;;5.25;1.50;;;13.70;99.90;;;;;;5086395;28;20040;-68
2022/06/10 00:17:43;;;;;;;4.80;1.88;;;13.30;99.90;;;;;;5104236;28;20036;-68
2022/06/10 00:20:12;;;;;;;7.63;2.85;;;13.20;99.90;;;;;;5104469;28;20046;-69
2022/06/10 00:22:37;;;;;;;7.93;2.60;;;12.80;99.90;;;;;;5103583;28;20048;-69
2022/06/10 00:25:04;;;;;;;6.88;2.45;;;12.70;99.90;;;;;;5103015;28;20040;-68
2022/06/10 00:27:30;;;;;;;6.05;2.50;;;12.50;99.90;;;;;;5102976;28;20044;-69
2022/06/10 00:29:55;;;;;;;8.43;2.72;;;12.60;99.90;;;;;;5102475;28;20051;-69
2022/06/10 00:32:21;;;;;;;6.30;2.80;;;12.70;99.90;;;;;;5103918;28;20072;-69
2022/06/10 00:34:47;;;;;;;9.13;2.97;;;12.70;99.90;;;;;;5103852;28;20067;-69
2022/06/10 00:37:12;;;;;;;8.52;2.70;;;12.80;99.90;;;;;;5103384;28;20039;-68
2022/06/10 00:39:38;;;;;;;8.07;3.22;;;13.10;99.90;;;;;;5086501;28;20044;-68
2022/06/10 00:42:05;;;;;;;10.77;3.10;;;13.20;99.90;;;;;;5103707;28;20043;-69
2022/06/10 00:44:32;;;;;;;10.05;3.47;;;13.20;99.90;;;;;;5102798;28;20086;-68
2022/06/10 00:46:59;;;;;;;11.40;2.75;;;13.40;99.90;;;;;;5104398;28;20074;-69
2022/06/10 00:49:25;;;;;;;6.93;2.50;;;13.40;99.90;;;;;;5102854;28;20056;-69
2022/06/10 00:51:54;;;;;;;6.57;2.67;;;13.40;99.90;;;;;;5102613;28;20081;-68
2022/06/10 00:54:42;;;;;;;8.20;3.42;;;13.50;99.90;;;;;;5106624;28;20042;-69
2022/06/10 00:57:14;;;;;;;6.90;2.78;;;13.60;99.90;;;;;;5107758;28;20407;-69
2022/06/10 00:59:48;;;;;;;12.00;3.13;;;13.60;99.90;;;;;;5108460;28;20047;-69
2022/06/10 01:02:22;;;;;;;8.88;2.78;;;13.60;99.90;;;;;;5105565;28;20100;-69
2022/06/10 01:04:47;;;;;;;9.40;3.38;;;13.60;99.90;;;;;;5104544;28;20063;-68
2022/06/10 01:07:20;;;;;;;7.53;3.25;;;13.60;99.90;;;;;;5107314;28;20044;-69
2022/06/10 01:09:48;;;;;;;9.90;3.03;;;13.70;99.90;;;;;;5108263;28;20036;-68
2022/06/10 01:12:33;;;;;;;9.25;3.40;;;13.40;99.90;;;;;;5106721;28;20080;-69
2022/06/10 01:15:07;;;;;;;8.70;3.20;;;13.40;99.90;;;;;;5107592;28;20039;-68
2022/06/10 01:17:59;;;;;;;7.88;3.38;;;13.40;99.90;;;;;;5106681;28;20583;-68
2022/06/10 01:20:45;;;;;;;10.13;3.25;;;13.40;99.90;;;;;;5107878;28;20401;-68
2022/06/10 01:23:37;;;;;;;8.95;3.30;;;13.40;99.90;;;;;;5107060;28;20103;-69
2022/06/10 01:26:21;;;;;;;13.07;4.10;;;13.40;99.90;;;;;;5089340;28;20036;-68
2022/06/10 01:29:05;;;;;;;10.90;4.10;;;13.40;99.90;;;;;;5103285;28;20052;-69
2022/06/10 01:32:09;;;;;;;7.20;3.38;;;13.40;99.90;;;;;;5105421;28;20634;-69
2022/06/10 01:35:20;;;;;;;8.80;3.92;;;13.40;99.90;;;;;;5105512;27;20053;-68
2022/06/10 01:38:10;;;;;;;8.65;3.40;;;13.40;99.90;;;;;;5081759;28;20044;-69
2022/06/10 01:41:14;;;;;;;9.57;3.72;;;13.50;99.90;;;;;;5067492;28;20049;-68
2022/06/10 01:43:54;;;;;;;11.77;3.95;;;13.30;99.90;;;;;;5067097;28;20049;-69
2022/06/10 01:46:30;;;;;;;12.88;3.60;;;13.30;99.90;;;;;;5083738;28;20066;-68
2022/06/10 01:49:17;;;;;;;10.02;4.13;;;13.30;99.90;;;;;;5067778;28;20068;-68
2022/06/10 01:51:53;;;;;;;8.65;3.83;;;13.20;99.90;;;;;;5066723;28;20059;-68
2022/06/10 01:54:48;;;;;;;9.18;3.92;;;13.10;99.90;;;;;;5067817;28;20036;-68
2022/06/10 01:57:21;;;;;;;8.25;3.53;;;13.10;99.90;;;;;;5084158;28;20048;-68
2022/06/10 02:00:02;;;;;;;9.25;3.22;;;13.10;99.90;;;;;;5067397;28;20121;-68
2022/06/10 02:02:33;;;;;;;9.95;3.83;;;13.00;99.90;;;;;;5067295;28;20045;-68
2022/06/10 02:05:07;;;;;;;10.98;4.38;;;12.90;99.90;;;;;;5065786;28;20120;-68
2022/06/10 02:07:43;;;;;;;10.75;3.42;;;12.90;99.90;;;;;;5082087;28;20122;-68
2022/06/10 02:10:16;;;;;;;7.15;3.88;;;13.00;99.90;;;;;;5067334;28;20044;-68
2022/06/10 02:12:49;;;;;;;10.77;4.07;;;12.90;99.90;;;;;;5105082;28;20048;-68
2022/06/10 02:15:23;;;;;;;11.95;4.70;;;13.00;99.90;;;;;;5105191;28;20036;-68
2022/06/10 02:17:56;;;;;;;9.60;3.60;;;12.80;99.90;;;;;;5105581;28;20052;-68
2022/06/10 02:20:25;;;;;;;11.88;4.35;;;12.80;99.90;;;;;;5107056;28;20086;-68
2022/06/10 02:22:54;;;;;;;7.60;3.65;;;12.90;99.90;;;;;;5105077;28;20096;-68
2022/06/10 02:25:30;;;;;;;7.97;3.92;;;12.80;99.90;;;;;;5104691;28;20048;-69
2022/06/10 02:28:04;;;;;;;9.15;3.70;;;12.80;99.90;;;;;;5106971;28;20035;-68
2022/06/10 02:30:56;;;;;;;11.40;4.03;;;12.80;99.90;;;;;;5105250;28;20052;-69
2022/06/10 02:33:22;;;;;;;9.23;4.05;;;12.60;99.90;;;;;;5101384;28;20052;-68
2022/06/10 02:36:06;;;;;;;8.82;3.92;;;12.70;99.90;;;;;;5101430;28;20419;-68
2022/06/10 02:38:56;;;;;;;7.80;3.90;;;12.80;99.90;;;;;;5104668;28;20078;-68
2022/06/10 02:41:37;;;;;;;9.90;4.60;;;12.70;99.90;;;;;;5100483;28;20071;-68
2022/06/10 02:44:30;;;;;;;9.43;3.83;;;12.60;99.90;;;;;;5103810;28;20055;-68
2022/06/10 02:47:09;;;;;;;9.48;4.35;;;12.60;99.90;;;;;;5102723;28;20439;-68
2022/06/10 02:49:35;;;;;;;7.63;3.95;;;12.50;99.90;;;;;;5101419;28;20146;-68
2022/06/10 02:52:01;;;;;;;11.20;4.28;;;12.50;99.90;;;;;;5104335;28;20040;-68
2022/06/10 02:54:35;;;;;;;8.43;3.47;;;12.50;99.90;;;;;;5106091;28;20528;-68
2022/06/10 02:57:17;;;;;;;8.60;3.65;;;12.60;99.90;;;;;;5103968;28;20048;-68
2022/06/10 03:02:39;;;;;;;8.05;4.05;;;12.50;99.90;;;;;;5105240;28;20059;-68
2022/06/10 03:05:09;;;;;;;7.28;3.92;;;12.50;99.90;;;;;;5102843;28;20488;-68
2022/06/10 03:08:23;;;;;;;9.77;4.47;;;12.40;99.90;;;;;;5104062;28;20041;-68
2022/06/10 03:11:22;;;;;;;9.40;3.83;;;12.40;99.90;;;;;;5104500;28;20448;-68
2022/06/10 03:14:10;;;;;;;9.07;4.60;;;12.40;99.90;;;;;;5105045;28;20252;-68
2022/06/10 03:17:03;;;;;;;8.52;3.92;;;12.30;99.90;;;;;;5117840;28;20759;-68
2022/06/10 03:19:55;;;;;;;9.60;3.75;;;12.30;99.90;;;;;;5102366;28;20052;-68
2022/06/10 03:22:42;;;;;;;9.63;3.92;;;12.30;99.90;;;;;;5105196;28;20039;-68
2022/06/10 03:25:20;;;;;;;8.93;3.75;;;12.50;99.90;;;;;;5102554;28;20424;-68
2022/06/10 03:28:14;;;;;;;8.95;3.88;;;12.50;99.90;;;;;;5086937;28;20051;-68
2022/06/10 03:30:57;;;;;;;9.85;3.65;;;12.50;99.90;;;;;;5102502;28;20551;-68
2022/06/10 03:33:42;;;;;;;11.07;3.80;;;12.50;99.90;;;;;;5085551;28;20060;-69
2022/06/10 03:36:26;;;;;;;7.75;4.28;;;12.50;99.90;;;;;;5104930;28;20042;-68
2022/06/10 03:38:53;;;;;;;8.50;3.85;;;12.60;99.90;;;;;;5101143;28;20039;-68
2022/06/10 03:41:37;;;;;;;7.78;4.13;;;12.50;99.90;;;;;;5104899;28;20118;-68
2022/06/10 03:44:17;;;;;;;13.55;4.05;;;12.50;99.90;;;;;;5105240;28;20043;-68
2022/06/10 03:46:48;;;;;;;8.40;3.65;;;12.50;99.90;;;;;;5086897;28;20044;-68
2022/06/10 03:49:17;;;;;;;8.98;3.80;;;12.50;99.90;;;;;;5099587;28;20040;-68
2022/06/10 03:51:44;;;;;;;9.93;4.32;;;12.40;99.90;;;;;;5103951;28;20047;-68
2022/06/10 03:54:15;;;;;;;9.13;4.13;;;12.40;99.90;;;;;;5105264;28;20488;-68
2022/06/10 03:56:41;;;;;;;9.88;3.85;;;12.40;99.90;;;;;;5104239;28;20051;-68
2022/06/10 03:59:06;;;;;;;10.95;3.58;;;12.50;99.90;;;;;;5103962;28;20521;-68
2022/06/10 04:01:32;;;;;;;10.90;3.97;;;12.40;99.90;;;;;;5105159;28;20070;-68
2022/06/10 04:03:59;;;;;;;10.05;4.22;;;12.60;99.90;;;;;;5103235;28;20044;-68
2022/06/10 04:06:25;;;;;;;9.85;3.60;;;12.50;99.90;;;;;;5103147;28;20040;-68
2022/06/10 04:08:51;;;;;;;8.05;3.88;;;12.60;99.90;;;;;;5113966;28;20040;-68
2022/06/10 04:11:17;;;;;;;9.25;3.72;;;12.70;99.90;;;;;;5086796;28;20048;-68
2022/06/10 04:13:44;;;;;;;8.65;4.15;;;12.80;99.90;;;;;;5102927;28;20109;-68
2022/06/10 04:16:11;;;;;;;10.75;4.60;;;12.80;99.90;;;;;;5102928;28;20057;-68
2022/06/10 04:18:37;;;;;;;10.77;4.25;;;12.90;99.90;;;;;;5103024;28;20047;-68
2022/06/10 04:21:04;;;;;;;11.05;3.90;;;12.90;99.90;;;;;;5103043;28;20052;-68
2022/06/10 04:23:30;;;;;;;7.57;3.90;;;13.00;99.90;;;;;;5102314;28;20048;-68
2022/06/10 04:25:55;;;;;;;13.30;3.80;;;12.90;99.90;;;;;;5103584;28;20048;-68
2022/06/10 04:28:21;;;;;;;8.90;3.72;;;13.10;99.90;;;;;;5088257;28;20503;-68
2022/06/10 04:30:50;;;;;;;11.18;4.15;;;13.00;99.90;;;;;;5107515;28;20071;-68
2022/06/10 04:33:16;;;;;;;10.77;4.10;;;13.10;99.90;;;;;;5109493;28;20048;-68
2022/06/10 04:35:43;;;;;;;10.63;4.30;;;13.00;99.90;;;;;;5107216;28;20114;-68
2022/06/10 04:38:12;;;;;;;11.45;3.85;;;13.10;99.90;;;;;;5106415;28;20072;-68
2022/06/10 04:40:38;;;;;;;12.40;3.92;;;13.20;99.90;;;;;;5107526;28;20049;-68
2022/06/10 04:43:05;;;;;;;11.40;4.50;;;13.20;99.90;;;;;;5108796;28;20044;-68
2022/06/10 04:45:35;;;;;;;13.13;4.68;;;13.20;99.90;;;;;;5106677;28;20044;-68
2022/06/10 04:48:01;;;;;;;9.38;4.40;;;13.20;99.90;;;;;;5089850;28;20047;-68
2022/06/10 04:50:28;;;;;;;8.70;4.45;;;13.30;99.90;;;;;;5106404;28;20047;-68
2022/06/10 04:52:55;;;;;;;11.65;4.93;;;13.40;99.90;;;;;;5090350;28;20132;-68
2022/06/10 04:55:21;;;;;;;9.85;4.45;;;13.40;99.90;;;;;;5107422;28;20048;-68
2022/06/10 04:57:47;;;;;;;15.68;5.38;;;13.50;99.90;;;;;;5104567;28;20128;-68
2022/06/10 05:00:18;;;;;;;14.40;4.88;;;13.50;99.90;;;;;;5106364;28;20048;-68
2022/06/10 05:02:44;;;;;;;15.20;5.20;;;13.60;99.90;;;;;;5103375;28;20058;-69
2022/06/10 05:05:09;;;;;;;15.00;5.47;;;13.60;99.90;;;;;;5106417;28;20432;-68
2022/06/10 05:07:35;;;;;;;14.70;5.10;;;13.60;99.90;;;;;;5108791;28;20090;-68
2022/06/10 05:10:02;;;;;;;19.10;6.13;;;13.70;99.90;;;;;;5106979;28;20072;-68
2022/06/10 05:12:28;;;;;;;15.77;5.97;;;13.70;99.90;;;;;;5106709;28;20127;-68
2022/06/10 05:14:54;;;;;;;15.88;6.13;;;13.80;99.90;;;;;;5108623;28;20411;-68
2022/06/10 05:17:19;;;;;;;11.18;5.47;;;13.90;99.90;;;;;;5106940;28;20105;-68
2022/06/10 05:19:47;;;;;;;18.17;5.63;;;13.90;99.90;;;;;;5106864;28;20051;-68
2022/06/10 05:22:14;;;;;;;10.27;4.63;;;14.00;99.90;;;;;;5108076;28;20036;-68
2022/06/10 05:24:40;;;;;;;9.40;5.07;;;14.00;99.90;;;;;;5108164;28;20068;-69
2022/06/10 05:27:05;;;;;;;20.13;6.13;;;14.10;99.90;;;;;;5088927;28;20048;-66
2022/06/10 05:29:31;;;;;;;17.52;5.78;;;14.10;99.90;;;;;;5106457;28;20051;-67
2022/06/10 05:31:57;;;;;;;15.10;5.85;;;14.20;99.90;;;;;;5105463;28;20138;-66
2022/06/10 05:37:07;;;;;;;11.90;5.43;;;14.30;99.90;;;;;;5075020;28;20040;-66
2022/06/10 05:39:33;;;;;;;11.10;5.72;;;14.30;99.90;;;;;;5069671;28;20047;-65
2022/06/10 05:42:04;;;;;;;14.23;5.72;;;14.50;99.90;;;;;;5100787;28;20048;-66
2022/06/10 05:44:31;;;;;;;15.25;6.38;;;14.70;99.90;;;;;;5100982;28;20040;-66
2022/06/10 05:46:57;;;;;;;10.65;5.60;;;14.70;99.90;;;;;;5097655;28;20128;-66
2022/06/10 05:49:23;;;;;;;12.65;5.72;;;14.80;99.90;;;;;;5088421;28;20044;-66
2022/06/10 05:51:50;;;;;;;13.55;5.95;;;15.00;99.90;;;;;;5102291;28;20036;-66
2022/06/10 05:54:16;;;;;;;15.02;6.82;;;15.10;99.90;;;;;;5079914;28;20064;-67
2022/06/10 05:56:45;;;;;;;15.48;6.22;;;15.20;99.90;;;;;;5085051;28;20048;-67
2022/06/10 05:59:13;;;;;;;14.70;6.60;;;15.30;99.90;;;;;;5095884;28;20051;-66
2022/06/10 06:01:38;;;;;;;15.13;5.65;;;15.40;99.90;;;;;;5090393;28;20051;-65
2022/06/10 06:04:04;;;;;;;18.92;7.00;;;15.30;99.90;;;;;;5101880;28;20154;-65
2022/06/10 06:06:30;;;;;;;12.88;5.63;;;15.30;99.90;;;;;;5101225;28;20147;-66
2022/06/10 06:08:56;;;;;;;11.10;6.07;;;15.30;99.90;;;;;;5086158;28;20427;-66
2022/06/10 06:11:21;;;;;;;14.57;6.20;;;15.30;99.90;;;;;;5080349;28;20046;-64
2022/06/10 06:13:47;;;;;;;16.00;6.30;;;15.40;99.90;;;;;;5096601;28;20107;-66
2022/06/10 06:16:16;;;;;;;8.68;5.63;;;15.40;99.90;;;;;;5099650;28;20051;-64
2022/06/10 06:18:43;;;;;;;16.15;6.45;;;15.30;99.90;;;;;;5097753;28;20495;-63
2022/06/10 06:21:09;;;;;;;15.25;5.60;;;15.30;99.90;;;;;;5084547;28;20450;-64
2022/06/10 06:23:35;;;;;;;14.63;5.75;;;15.30;99.90;;;;;;5097333;28;20409;-64
2022/06/10 06:26:01;;;;;;;16.10;5.85;;;15.30;99.90;;;;;;5075556;28;20055;-64
2022/06/10 06:28:29;;;;;;;16.63;6.72;;;15.30;99.90;;;;;;5083939;28;20111;-64
2022/06/10 06:30:55;;;;;;;15.60;6.38;;;15.50;99.90;;;;;;5091045;28;20059;-65
2022/06/10 06:33:21;;;;;;;11.07;5.93;;;15.40;99.90;;;;;;5103007;28;20044;-64
2022/06/10 06:35:51;;;;;;;17.60;7.10;;;15.20;99.90;;;;;;5086028;28;20106;-64
2022/06/10 06:38:18;;;;;;;15.73;7.13;;;15.10;99.90;;;;;;5100176;28;20048;-64
2022/06/10 06:40:44;;;;;;;14.50;6.20;;;15.10;99.90;;;;;;5097601;28;20050;-66
2022/06/10 06:43:10;;;;;;;12.07;6.40;;;15.20;99.90;;;;;;5098535;28;20076;-64
2022/06/10 06:45:37;;;;;;;13.40;6.13;;;15.20;99.90;;;;;;5098758;27;20427;-65
2022/06/10 06:48:09;;;;;;;11.55;5.82;;;15.20;99.90;;;;;;5104890;28;20048;-65
2022/06/10 06:50:39;;;;;;;12.40;6.15;;;15.30;99.90;;;;;;5089187;28;20103;-65
2022/06/10 06:53:05;;;;;;;11.20;5.97;;;15.30;99.90;;;;;;5104350;28;20069;-65
2022/06/10 06:55:31;;;;;;;10.82;5.80;;;15.30;99.90;;;;;;5091717;28;20146;-65
2022/06/10 06:57:57;;;;;;;14.85;6.03;;;15.50;99.90;;;;;;5096049;28;20128;-65
2022/06/10 07:00:23;;;;;;;16.13;6.25;;;15.50;99.90;;;;;;5094727;28;20055;-65
2022/06/10 07:02:48;;;;;;;14.48;6.85;;;15.50;99.90;;;;;;5097116;28;20688;-64
2022/06/10 07:05:14;;;;;;;16.95;6.93;;;15.60;99.90;;;;;;5093845;28;20044;-64
2022/06/10 07:07:41;;;;;;;16.40;6.55;;;15.60;99.90;;;;;;5095770;28;20044;-65
2022/06/10 07:10:08;;;;;;;16.90;7.00;;;15.80;99.90;;;;;;5091113;28;20052;-65
2022/06/10 07:12:34;;;;;;;14.10;6.05;;;15.90;99.90;;;;;;5095172;28;20060;-65
2022/06/10 07:15:00;;;;;;;13.48;6.30;;;16.00;99.90;;;;;;5088160;28;20051;-64
2022/06/10 07:17:26;;;;;;;12.60;6.95;;;16.10;99.90;;;;;;5096091;28;20047;-64
2022/06/10 07:19:54;;;;;;;16.48;8.27;;;16.10;99.90;;;;;;5089830;28;20060;-64
2022/06/10 07:22:20;;;;;;;18.05;8.20;;;16.20;99.90;;;;;;5095416;28;20136;-65
2022/06/10 07:24:46;;;;;;;18.90;7.90;;;16.10;99.90;;;;;;5088352;28;20040;-64
2022/06/10 07:27:12;;;;;;;16.90;7.90;;;15.90;99.90;;;;;;5077578;28;20539;-65
2022/06/10 07:29:37;;;;;;;15.95;7.32;;;16.00;99.90;;;;;;5086105;28;20071;-65
2022/06/10 07:32:04;;;;;;;19.30;8.65;;;15.90;99.90;;;;;;5080581;28;20051;-65
2022/06/10 07:34:29;;;;;;;16.00;8.45;;;15.90;99.90;;;;;;5078014;28;20108;-65
2022/06/10 07:36:55;;;;;;;14.60;8.05;;;15.80;99.90;;;;;;5080861;28;20084;-65
2022/06/10 07:39:21;;;;;;;12.05;7.80;;;15.90;99.90;;;;;;5077764;28;20178;-65
2022/06/10 07:42:01;;;;;;;15.75;8.20;;;16.00;99.90;;;;;;5068400;28;20345;-65
2022/06/10 07:44:33;;;;;;;14.73;8.52;;;16.00;99.90;;;;;;5074666;28;20136;-65
2022/06/10 07:47:02;;;;;;;12.60;7.60;;;16.00;99.90;;;;;;5052358;28;20040;-65
2022/06/10 07:49:28;;;;;;;11.63;7.28;;;16.10;99.90;;;;;;5081766;28;20075;-64
2022/06/10 07:51:54;;;;;;;15.13;7.57;;;16.10;99.90;;;;;;5072746;28;20052;-65
2022/06/10 07:54:19;;;;;;;18.80;8.95;;;16.20;99.90;;;;;;5091946;28;20058;-65
2022/06/10 07:56:45;;;;;;;14.43;7.72;;;16.20;99.90;;;;;;5085202;28;20047;-66
2022/06/10 07:59:11;;;;;;;12.52;7.03;;;16.30;99.90;;;;;;5094662;28;20117;-66
2022/06/10 08:01:37;;;;;;;12.88;7.07;;;16.30;99.90;;;;;;5065027;28;20055;-66
2022/06/10 08:04:06;;;;;;;11.13;7.30;;;16.40;99.90;;;;;;5078977;28;20044;-66
2022/06/10 08:06:34;;;;;;;12.40;7.03;;;16.50;99.90;;;;;;5083267;28;20065;-65
2022/06/10 08:09:00;;;;;;;13.82;6.95;;;16.70;99.90;;;;;;5090864;28;20093;-65
2022/06/10 08:11:26;;;;;;;16.05;7.65;;;16.80;99.90;;;;;;5070105;28;20353;-65
2022/06/10 08:13:52;;;;;;;12.00;7.00;;;16.80;99.90;;;;;;5079354;28;20076;-65
2022/06/10 08:16:18;;;;;;;14.60;7.07;;;16.70;99.90;;;;;;5069556;28;20347;-65
2022/06/10 08:18:45;;;;;;;14.20;6.82;;;16.60;99.90;;;;;;5099051;28;20100;-65
2022/06/10 08:23:56;;;;;;;15.07;7.88;;;16.70;99.90;;;;;;5098315;28;20054;-66
2022/06/10 08:26:22;;;;;;;13.57;7.70;;;16.70;99.90;;;;;;5057857;28;20832;-66
2022/06/10 08:28:48;;;;;;;16.35;7.30;;;16.80;99.90;;;;;;5073411;28;20044;-66
2022/06/10 08:31:14;;;;;;;16.85;8.23;;;16.80;99.90;;;;;;5076905;28;20052;-65
2022/06/10 08:33:41;;;;;;;13.20;7.00;;;16.80;99.90;;;;;;5072458;28;20106;-64
2022/06/10 08:36:08;;;;;;;18.92;13.48;;;16.70;99.90;;;;;;5039069;28;20350;-65
2022/06/10 08:38:34;;;;;;;13.50;7.10;;;16.80;99.90;;;;;;5074892;28;20056;-65
2022/06/10 08:41:19;;;;;;;12.93;6.57;;;16.90;99.90;;;;;;5072554;28;20067;-65
2022/06/10 08:43:57;;;;;;;14.02;7.50;;;17.00;99.90;;;;;;5090406;28;20059;-65
2022/06/10 08:46:57;;;;;;;15.18;7.60;;;17.10;99.90;;;;;;5065350;28;20045;-65
2022/06/10 08:49:44;;;;;;;14.32;7.20;;;17.20;99.90;;;;;;5019062;28;20068;-65
2022/06/10 08:52:28;;;;;;;14.32;7.10;;;17.30;99.90;;;;;;4997616;28;20061;-64
2022/06/10 08:55:20;;;;;;;11.85;7.28;;;17.30;99.90;;;;;;5027920;28;20041;-64
2022/06/10 08:57:47;;;;;;;13.30;7.22;;;17.30;99.90;;;;;;5018136;28;20089;-65
2022/06/10 09:00:26;;;;;;;15.13;6.75;;;17.30;99.90;;;;;;5025807;28;20067;-65
2022/06/10 09:03:06;;;;;;;12.00;6.22;;;17.50;99.90;;;;;;5017559;28;20073;-65
2022/06/10 09:05:43;;;;;;;17.02;6.88;;;17.60;99.90;;;;;;5027819;28;20052;-64
2022/06/10 09:08:26;;;;;;;13.75;6.43;;;17.60;99.90;;;;;;5018548;28;20070;-65
2022/06/10 09:11:22;;;;;;;13.93;5.63;;;17.70;99.90;;;;;;5020552;28;20058;-64
2022/06/10 09:13:58;;;;;;;13.40;6.53;;;17.80;99.90;;;;;;5008900;28;20544;-65
2022/06/10 09:16:53;;;;;;;11.88;5.55;;;17.90;99.90;;;;;;5020565;28;20131;-65
2022/06/10 09:19:22;;;;;;;11.32;5.82;;;18.10;99.90;;;;;;5040491;28;20058;-65
2022/06/10 09:22:12;;;;;;;11.57;5.60;;;18.10;99.90;;;;;;4997025;28;20053;-64
2022/06/10 09:24:50;;;;;;;18.20;5.55;;;18.00;99.90;;;;;;5055757;28;20043;-65
2022/06/10 09:27:23;;;;;;;9.68;5.13;;;18.10;99.90;;;;;;5061472;28;20052;-64
2022/06/10 09:29:49;;;;;;;14.80;5.35;;;18.10;99.90;;;;;;5082860;28;20048;-65
2022/06/10 09:32:43;;;;;;;12.07;5.28;;;18.10;99.90;;;;;;5071519;28;20055;-65
2022/06/10 09:35:20;;;;;;;12.15;5.32;;;18.10;99.90;;;;;;5072669;28;20056;-65
2022/06/10 09:37:56;;;;;;;13.98;5.82;;;18.00;99.90;;;;;;5073180;28;20182;-65
2022/06/10 09:40:36;;;;;;;14.88;6.03;;;18.20;99.90;;;;;;5069331;28;20040;-65
2022/06/10 09:43:42;;;;;;;18.02;6.00;;;18.10;99.90;;;;;;5097596;28;20534;-64
2022/06/10 09:46:36;;;;;;;15.50;5.30;;;18.10;99.90;;;;;;5069562;28;20531;-64
2022/06/10 09:49:12;;;;;;;13.07;5.65;;;18.00;99.90;;;;;;5079181;28;20052;-65
2022/06/10 09:52:08;;;;;;;14.40;6.63;;;18.10;99.90;;;;;;5069722;28;20550;-65
2022/06/10 09:54:55;;;;;;;13.30;5.22;;;18.00;99.90;;;;;;5093710;28;20496;-65
2022/06/10 09:57:29;;;;;;;8.95;5.65;;;18.00;99.90;;;;;;5062998;28;20079;-65
2022/06/10 10:00:10;;;;;;;10.18;6.00;;;17.80;99.90;;;;;;5095367;28;20048;-64
2022/06/10 10:02:36;;;;;;;10.88;6.28;;;17.80;99.90;;;;;;5051406;28;20079;-65
2022/06/10 10:05:06;;;;;;;13.63;5.78;;;17.70;99.90;;;;;;5091505;28;20040;-64
2022/06/10 10:07:57;;;;;;;13.98;5.88;;;17.80;99.90;;;;;;5066645;28;20048;-64
2022/06/10 10:10:26;;;;;;;11.95;5.35;;;17.80;99.90;;;;;;5066074;28;20108;-64
2022/06/10 10:12:58;;;;;;;14.90;5.85;;;17.80;99.90;;;;;;5075419;28;20078;-64
2022/06/10 10:15:31;;;;;;;10.73;5.45;;;17.80;99.90;;;;;;5065559;28;20547;-64
2022/06/10 10:18:08;;;;;;;12.25;5.47;;;17.90;99.90;;;;;;5092605;28;20048;-64
2022/06/10 10:21:04;;;;;;;16.88;6.10;;;18.10;99.90;;;;;;5065635;28;20585;-64
2022/06/10 10:23:49;;;;;;;10.50;5.30;;;18.20;99.90;;;;;;5060288;28;20654;-64
2022/06/10 10:26:37;;;;;;;9.98;5.40;;;18.50;99.90;;;;;;5062938;28;20527;-64
2022/06/10 10:29:11;;;;;;;10.00;5.15;;;18.60;99.90;;;;;;5071306;28;20081;-64
2022/06/10 10:31:55;;;;;;;10.45;4.85;;;18.90;99.90;;;;;;5060301;28;20063;-64
2022/06/10 10:34:24;;;;;;;11.40;5.07;;;19.00;99.90;;;;;;5075942;28;20055;-64
2022/06/10 10:36:58;;;;;;;8.45;5.38;;;19.20;99.90;;;;;;5047010;28;20044;-64
2022/06/10 10:39:24;;;;;;;12.57;5.07;;;19.10;99.90;;;;;;5095590;28;20045;-64
2022/06/10 10:41:51;;;;;;;14.02;5.78;;;19.30;99.90;;;;;;5071096;28;20040;-64
2022/06/10 10:44:26;;;;;;;12.90;4.55;;;19.30;99.90;;;;;;5080113;28;20051;-63
2022/06/10 10:47:00;;;;;;;12.57;5.20;;;19.30;99.90;;;;;;5084535;28;20048;-63
2022/06/10 10:49:32;;;;;;;10.25;5.40;;;19.20;99.90;;;;;;5075845;28;20054;-63
2022/06/10 10:51:58;;;;;;;11.10;5.00;;;19.20;99.90;;;;;;5068550;28;20172;-63
2022/06/10 10:54:30;;;;;;;10.40;4.80;;;19.20;99.90;;;;;;5080414;28;20126;-64
2022/06/10 10:56:58;;;;;;;12.20;4.70;;;19.30;99.90;;;;;;5070248;28;20040;-64
2022/06/10 10:59:32;;;;;;;13.27;4.75;;;19.20;99.90;;;;;;5098642;28;20567;-64
2022/06/10 11:01:59;;;;;;;18.00;5.13;;;19.20;99.90;;;;;;5070022;28;20098;-64
2022/06/10 11:04:36;;;;;;;11.65;4.68;;;19.40;99.90;;;;;;5097252;28;20051;-64
2022/06/10 11:07:05;;;;;;;9.63;4.65;;;19.60;99.90;;;;;;5060934;28;20059;-64
2022/06/10 11:09:31;;;;;;;12.57;4.25;;;19.90;99.90;;;;;;5077311;28;20268;-64
2022/06/10 11:12:02;;;;;;;10.20;3.83;;;20.00;99.90;;;;;;5084451;28;20589;-63
2022/06/10 11:14:36;;;;;;;10.60;4.32;;;20.20;99.90;;;;;;5077374;28;20051;-64
2022/06/10 11:17:11;;;;;;;9.00;4.10;;;20.30;99.90;;;;;;5069036;28;20075;-63
2022/06/10 11:19:37;;;;;;;6.00;3.83;;;20.20;99.90;;;;;;5065786;28;20052;-64
2022/06/10 11:22:19;;;;;;;12.80;4.93;;;20.30;99.90;;;;;;5079491;28;20055;-64
2022/06/10 11:24:49;;;;;;;14.15;4.28;;;20.20;99.90;;;;;;5064233;28;20101;-64
2022/06/10 11:27:33;;;;;;;9.77;3.97;;;20.10;99.90;;;;;;5055843;28;20040;-64
2022/06/10 11:30:10;;;;;;;10.00;4.40;;;20.20;99.90;;;;;;5094601;28;20040;-64
2022/06/10 11:32:42;;;;;;;9.52;4.15;;;20.20;99.90;;;;;;5066841;28;20052;-64
2022/06/10 11:35:37;;;;;;;8.43;3.95;;;20.30;99.90;;;;;;5093678;28;20048;-64
2022/06/10 11:38:09;;;;;;;7.07;4.28;;;20.40;99.90;;;;;;5047278;28;20419;-65
2022/06/10 11:40:40;;;;;;;11.02;4.90;;;20.50;99.90;;;;;;5066715;28;20044;-65
2022/06/10 11:43:39;;;;;;;17.92;4.93;;;20.60;99.90;;;;;;5092358;28;20039;-65
2022/06/10 11:46:16;;;;;;;10.18;3.97;;;20.80;99.90;;;;;;5082740;28;20047;-65
2022/06/10 11:48:52;;;;;;;11.55;5.18;;;20.90;99.90;;;;;;5078346;28;20044;-65
2022/06/10 11:51:35;;;;;;;11.18;4.45;;;21.00;99.90;;;;;;5066591;28;20048;-65
2022/06/10 11:54:30;;;;;;;12.43;4.90;;;21.00;99.90;;;;;;5095869;28;20173;-64
2022/06/10 12:00:12;;;;;;;9.68;4.80;;;21.30;99.90;;;;;;5067931;28;20103;-64
2022/06/10 12:02:47;;;;;;;9.95;4.18;;;21.50;99.90;;;;;;5085943;28;20531;-64
2022/06/10 12:05:22;;;;;;;10.50;5.18;;;21.70;99.90;;;;;;5095358;28;20490;-64
2022/06/10 12:08:29;;;;;;;8.05;4.18;;;21.70;99.90;;;;;;5064667;28;20052;-65
2022/06/10 12:11:03;;;;;;;8.77;4.45;;;21.70;99.90;;;;;;5064162;28;20084;-64
2022/06/10 12:13:38;;;;;;;9.77;3.83;;;21.50;99.90;;;;;;5094228;28;20051;-64
2022/06/10 12:16:05;;;;;;;9.30;3.88;;;21.30;99.90;;;;;;5068685;28;20052;-64
2022/06/10 12:18:40;;;;;;;10.90;3.95;;;21.20;99.90;;;;;;5096959;28;20051;-64
2022/06/10 12:21:06;;;;;;;8.18;3.60;;;21.00;99.90;;;;;;5066270;28;20075;-64
2022/06/10 12:23:36;;;;;;;8.82;4.30;;;21.00;99.90;;;;;;5077047;28;20130;-65
2022/06/10 12:26:30;;;;;;;11.02;3.97;;;21.10;99.90;;;;;;5068220;28;20052;-64
2022/06/10 12:29:01;;;;;;;11.18;3.92;;;21.20;99.90;;;;;;5077228;28;20322;-65
2022/06/10 12:31:51;;;;;;;13.85;4.40;;;21.20;99.90;;;;;;5083532;28;20051;-64
2022/06/10 12:34:28;;;;;;;;;;;21.20;99.90;;;;;;5047698;28;20088;-64
2022/06/10 12:37:01;;;;;;;11.63;4.75;;;21.10;99.90;;;;;;5056442;28;19920;-64
2022/06/10 12:39:48;;;;;;;11.13;5.13;;;21.00;99.90;;;;;;5074923;28;20056;-64
2022/06/10 12:42:27;;;;;;;8.38;3.90;;;21.10;99.90;;;;;;5066377;28;20082;-64
2022/06/10 12:44:58;;;;;;;8.00;4.07;;;21.10;99.90;;;;;;5093404;28;20104;-64
2022/06/10 12:47:36;;;;;;;9.57;4.72;;;21.20;99.90;;;;;;5052884;28;20041;-64
2022/06/10 12:50:16;;;;;;;10.02;4.45;;;21.10;99.90;;;;;;5079408;28;20105;-64
2022/06/10 12:53:02;;;;;;;8.90;4.63;;;21.30;99.90;;;;;;5053250;28;20090;-66
2022/06/10 12:55:36;;;;;;;8.65;4.30;;;21.30;99.90;;;;;;5098189;28;20538;-64
2022/06/10 12:58:03;;;;;;;10.07;4.63;;;21.30;99.90;;;;;;5088268;28;20051;-65
2022/06/10 13:00:39;;;;;;;8.88;5.60;;;21.20;99.90;;;;;;5080568;28;20127;-64
2022/06/10 13:03:14;;;;;;;8.40;3.60;;;21.40;99.90;;;;;;5076890;28;20628;-64
2022/06/10 13:05:40;;;;;;;12.32;3.97;;;21.30;99.90;;;;;;5082820;28;20054;-65
2022/06/10 13:08:30;;;;;;;10.57;4.38;;;21.30;99.90;;;;;;5068727;28;20075;-64
2022/06/10 13:10:58;;;;;;;12.75;4.32;;;21.20;99.90;;;;;;5070008;28;20044;-65
2022/06/10 13:13:25;;;;;;;9.55;4.72;;;21.20;99.90;;;;;;5096752;28;20035;-64
2022/06/10 13:15:53;;;;;;;8.57;3.95;;;21.30;99.90;;;;;;5069842;28;20055;-65
2022/06/10 13:18:34;;;;;;;12.15;4.60;;;21.40;99.90;;;;;;5079540;28;20051;-65
2022/06/10 13:21:14;;;;;;;10.18;3.50;;;21.50;99.90;;;;;;5053436;28;20058;-65
2022/06/10 13:23:59;;;;;;;7.53;3.58;;;21.70;99.90;;;;;;5080577;28;20060;-65